Log in Register

Login to your account

Username *
Password *
Remember Me

Create an account

Fields marked with an asterisk (*) are required.
Name *
Username *
Password *
Verify password *
Email *
Verify email *

Please enter the email address associated with your User account. Your username will be emailed to the email address on file.

Nous contacter

 Téléphone : +33 (0)4 79 54 41 81

Coordonnées détaillées et accès : cliquez ici

 
LFLB °C
    Ferienhaus Ostsee
[source: ADDS]
METAR
LFLB 181500Z AUTO VRB06KT 9999 FEW064 31/19 Q1015 TEMPO VRB15G25KT FEW080CB =
TAF LFLB 181400Z 1815/1915 18007KT CAVOK PROB30 TEMPO 1815/1819 VRB15G25KT FEW080CB BECMG 1820/1823 VRB02KT
TAF
TAF LFLB 181400Z 1815/1915 18007KT CAVOK PROB30 TEMPO 1815/1819 VRB15G25KT FEW080CB BECMG 1820/1823 VRB02KT =
SR / SS: 03:46 / 19:28 UTC (Lever/Coucher du soleil le 2021-06-18)
JSN Boot template designed by JoomlaShine.com